sensor_id;sensor_type;location;lat;lon;timestamp;P1;durP1;ratioP1;P2;durP2;ratioP2
32501;SDS011;18952;52.516;13.460;2022-11-23T00:00:05;130.20;;;67.93;;
32501;SDS011;18952;52.516;13.460;2022-11-23T00:02:32;134.25;;;71.65;;
32501;SDS011;18952;52.516;13.460;2022-11-23T00:04:58;153.63;;;73.75;;
32501;SDS011;18952;52.516;13.460;2022-11-23T00:07:25;136.55;;;70.72;;
32501;SDS011;18952;52.516;13.460;2022-11-23T00:09:52;138.25;;;70.32;;
32501;SDS011;18952;52.516;13.460;2022-11-23T00:12:19;128.93;;;70.07;;
32501;SDS011;18952;52.516;13.460;2022-11-23T00:14:45;133.32;;;70.43;;
32501;SDS011;18952;52.516;13.460;2022-11-23T00:17:12;130.73;;;68.07;;
32501;SDS011;18952;52.516;13.460;2022-11-23T00:19:39;129.88;;;69.10;;
32501;SDS011;18952;52.516;13.460;2022-11-23T00:22:05;131.07;;;68.45;;
32501;SDS011;18952;52.516;13.460;2022-11-23T00:24:32;131.23;;;68.10;;
32501;SDS011;18952;52.516;13.460;2022-11-23T00:26:59;127.65;;;67.20;;
32501;SDS011;18952;52.516;13.460;2022-11-23T00:29:25;135.70;;;70.63;;
32501;SDS011;18952;52.516;13.460;2022-11-23T00:31:52;145.52;;;71.93;;
32501;SDS011;18952;52.516;13.460;2022-11-23T00:34:19;135.15;;;69.05;;
32501;SDS011;18952;52.516;13.460;2022-11-23T00:36:46;135.63;;;69.20;;
32501;SDS011;18952;52.516;13.460;2022-11-23T00:39:12;133.65;;;69.88;;
32501;SDS011;18952;52.516;13.460;2022-11-23T00:41:39;129.15;;;70.97;;
32501;SDS011;18952;52.516;13.460;2022-11-23T00:44:06;133.80;;;69.60;;
32501;SDS011;18952;52.516;13.460;2022-11-23T00:46:32;131.50;;;68.18;;
32501;SDS011;18952;52.516;13.460;2022-11-23T00:48:59;132.70;;;68.95;;
32501;SDS011;18952;52.516;13.460;2022-11-23T00:51:29;131.60;;;71.47;;
32501;SDS011;18952;52.516;13.460;2022-11-23T00:53:58;130.02;;;69.32;;
32501;SDS011;18952;52.516;13.460;2022-11-23T00:56:26;123.50;;;67.20;;
32501;SDS011;18952;52.516;13.460;2022-11-23T00:58:53;122.35;;;66.05;;
32501;SDS011;18952;52.516;13.460;2022-11-23T01:01:22;126.78;;;67.78;;
32501;SDS011;18952;52.516;13.460;2022-11-23T01:03:55;125.22;;;67.22;;
32501;SDS011;18952;52.516;13.460;2022-11-23T01:06:25;131.50;;;69.22;;
32501;SDS011;18952;52.516;13.460;2022-11-23T01:08:54;127.10;;;67.82;;
32501;SDS011;18952;52.516;13.460;2022-11-23T01:11:24;130.77;;;68.50;;
32501;SDS011;18952;52.516;13.460;2022-11-23T01:13:52;138.57;;;70.22;;
32501;SDS011;18952;52.516;13.460;2022-11-23T01:16:24;134.45;;;69.80;;
32501;SDS011;18952;52.516;13.460;2022-11-23T01:18:56;134.88;;;69.07;;
32501;SDS011;18952;52.516;13.460;2022-11-23T01:21:25;129.55;;;67.32;;
32501;SDS011;18952;52.516;13.460;2022-11-23T01:23:54;123.32;;;67.47;;
32501;SDS011;18952;52.516;13.460;2022-11-23T01:26:21;124.25;;;68.03;;
32501;SDS011;18952;52.516;13.460;2022-11-23T01:28:48;127.85;;;70.22;;
32501;SDS011;18952;52.516;13.460;2022-11-23T01:31:17;130.45;;;67.63;;
32501;SDS011;18952;52.516;13.460;2022-11-23T01:33:45;129.30;;;68.40;;
32501;SDS011;18952;52.516;13.460;2022-11-23T01:36:14;132.57;;;69.35;;
32501;SDS011;18952;52.516;13.460;2022-11-23T01:38:43;130.93;;;68.50;;
32501;SDS011;18952;52.516;13.460;2022-11-23T01:41:12;134.55;;;67.95;;
32501;SDS011;18952;52.516;13.460;2022-11-23T01:43:50;124.63;;;67.38;;
32501;SDS011;18952;52.516;13.460;2022-11-23T01:46:17;119.90;;;66.93;;
32501;SDS011;18952;52.516;13.460;2022-11-23T01:49:03;126.88;;;67.07;;
32501;SDS011;18952;52.516;13.460;2022-11-23T01:51:35;124.32;;;68.43;;
32501;SDS011;18952;52.516;13.460;2022-11-23T01:56:54;118.85;;;66.25;;
32501;SDS011;18952;52.516;13.460;2022-11-23T01:59:25;121.63;;;66.70;;
32501;SDS011;18952;52.516;13.460;2022-11-23T02:01:53;117.07;;;65.88;;
32501;SDS011;18952;52.516;13.460;2022-11-23T02:04:24;120.13;;;64.43;;
32501;SDS011;18952;52.516;13.460;2022-11-23T02:06:55;112.93;;;65.10;;
32501;SDS011;18952;52.516;13.460;2022-11-23T02:09:24;112.38;;;64.70;;
32501;SDS011;18952;52.516;13.460;2022-11-23T02:11:51;111.95;;;63.40;;
32501;SDS011;18952;52.516;13.460;2022-11-23T02:14:18;108.88;;;62.53;;
32501;SDS011;18952;52.516;13.460;2022-11-23T02:16:48;114.43;;;64.72;;
32501;SDS011;18952;52.516;13.460;2022-11-23T02:19:19;121.00;;;67.53;;
32501;SDS011;18952;52.516;13.460;2022-11-23T02:22:00;115.57;;;63.83;;
32501;SDS011;18952;52.516;13.460;2022-11-23T02:24:30;108.90;;;63.78;;
32501;SDS011;18952;52.516;13.460;2022-11-23T02:27:02;113.18;;;65.07;;
32501;SDS011;18952;52.516;13.460;2022-11-23T02:29:30;108.28;;;64.63;;
32501;SDS011;18952;52.516;13.460;2022-11-23T02:31:56;106.05;;;62.80;;
32501;SDS011;18952;52.516;13.460;2022-11-23T02:34:23;106.07;;;61.60;;
32501;SDS011;18952;52.516;13.460;2022-11-23T02:36:54;103.00;;;61.13;;
32501;SDS011;18952;52.516;13.460;2022-11-23T02:41:56;102.78;;;59.25;;
32501;SDS011;18952;52.516;13.460;2022-11-23T02:47:11;106.18;;;60.63;;
32501;SDS011;18952;52.516;13.460;2022-11-23T02:49:41;105.38;;;61.70;;
32501;SDS011;18952;52.516;13.460;2022-11-23T02:52:11;107.82;;;62.17;;
32501;SDS011;18952;52.516;13.460;2022-11-23T02:54:39;114.00;;;64.15;;
32501;SDS011;18952;52.516;13.460;2022-11-23T02:57:06;107.50;;;62.83;;
32501;SDS011;18952;52.516;13.460;2022-11-23T02:59:33;103.45;;;59.90;;
32501;SDS011;18952;52.516;13.460;2022-11-23T03:02:00;103.57;;;61.47;;
32501;SDS011;18952;52.516;13.460;2022-11-23T03:04:29;105.65;;;60.92;;
32501;SDS011;18952;52.516;13.460;2022-11-23T03:06:56;108.15;;;64.13;;
32501;SDS011;18952;52.516;13.460;2022-11-23T03:09:23;115.20;;;63.88;;
32501;SDS011;18952;52.516;13.460;2022-11-23T03:11:49;103.78;;;62.50;;
32501;SDS011;18952;52.516;13.460;2022-11-23T03:14:17;106.60;;;63.30;;
32501;SDS011;18952;52.516;13.460;2022-11-23T03:16:43;102.38;;;62.75;;
32501;SDS011;18952;52.516;13.460;2022-11-23T03:19:10;119.90;;;65.68;;
32501;SDS011;18952;52.516;13.460;2022-11-23T03:21:37;117.90;;;67.10;;
32501;SDS011;18952;52.516;13.460;2022-11-23T03:24:04;114.65;;;66.30;;
32501;SDS011;18952;52.516;13.460;2022-11-23T03:26:30;114.88;;;67.93;;
32501;SDS011;18952;52.516;13.460;2022-11-23T03:28:57;115.60;;;65.80;;
32501;SDS011;18952;52.516;13.460;2022-11-23T03:31:24;122.13;;;68.20;;
32501;SDS011;18952;52.516;13.460;2022-11-23T03:33:51;115.18;;;65.13;;
32501;SDS011;18952;52.516;13.460;2022-11-23T03:36:17;109.55;;;64.40;;
32501;SDS011;18952;52.516;13.460;2022-11-23T03:38:44;112.55;;;64.60;;
32501;SDS011;18952;52.516;13.460;2022-11-23T03:41:11;107.93;;;63.10;;
32501;SDS011;18952;52.516;13.460;2022-11-23T03:43:38;118.15;;;66.22;;
32501;SDS011;18952;52.516;13.460;2022-11-23T03:46:04;105.90;;;63.17;;
32501;SDS011;18952;52.516;13.460;2022-11-23T03:48:31;106.25;;;62.33;;
32501;SDS011;18952;52.516;13.460;2022-11-23T03:50:58;113.20;;;63.78;;
32501;SDS011;18952;52.516;13.460;2022-11-23T03:53:27;109.20;;;64.97;;
32501;SDS011;18952;52.516;13.460;2022-11-23T03:55:54;111.95;;;64.28;;
32501;SDS011;18952;52.516;13.460;2022-11-23T03:58:21;119.97;;;66.05;;
32501;SDS011;18952;52.516;13.460;2022-11-23T04:00:47;113.45;;;65.15;;
32501;SDS011;18952;52.516;13.460;2022-11-23T04:03:14;113.35;;;65.18;;
32501;SDS011;18952;52.516;13.460;2022-11-23T04:05:41;117.85;;;66.32;;
32501;SDS011;18952;52.516;13.460;2022-11-23T04:08:08;111.97;;;63.92;;
32501;SDS011;18952;52.516;13.460;2022-11-23T04:10:35;115.47;;;63.97;;
32501;SDS011;18952;52.516;13.460;2022-11-23T04:13:02;121.10;;;65.50;;
32501;SDS011;18952;52.516;13.460;2022-11-23T04:15:28;118.38;;;64.88;;
32501;SDS011;18952;52.516;13.460;2022-11-23T04:17:55;120.40;;;65.95;;
32501;SDS011;18952;52.516;13.460;2022-11-23T04:20:22;118.00;;;65.75;;
32501;SDS011;18952;52.516;13.460;2022-11-23T04:22:48;114.90;;;65.57;;
32501;SDS011;18952;52.516;13.460;2022-11-23T04:25:15;111.82;;;63.17;;
32501;SDS011;18952;52.516;13.460;2022-11-23T04:27:42;106.13;;;62.20;;
32501;SDS011;18952;52.516;13.460;2022-11-23T04:30:09;104.78;;;59.42;;
32501;SDS011;18952;52.516;13.460;2022-11-23T04:32:37;106.13;;;61.78;;
32501;SDS011;18952;52.516;13.460;2022-11-23T04:35:03;110.40;;;62.03;;
32501;SDS011;18952;52.516;13.460;2022-11-23T04:37:31;107.38;;;62.63;;
32501;SDS011;18952;52.516;13.460;2022-11-23T04:39:57;104.60;;;62.88;;
32501;SDS011;18952;52.516;13.460;2022-11-23T04:42:24;104.68;;;60.65;;
32501;SDS011;18952;52.516;13.460;2022-11-23T04:44:51;107.07;;;60.53;;
32501;SDS011;18952;52.516;13.460;2022-11-23T04:47:18;102.28;;;61.28;;
32501;SDS011;18952;52.516;13.460;2022-11-23T04:49:44;110.65;;;62.42;;
32501;SDS011;18952;52.516;13.460;2022-11-23T04:52:11;104.93;;;62.60;;
32501;SDS011;18952;52.516;13.460;2022-11-23T04:54:38;107.95;;;63.00;;
32501;SDS011;18952;52.516;13.460;2022-11-23T04:57:04;105.72;;;61.03;;
32501;SDS011;18952;52.516;13.460;2022-11-23T04:59:31;107.70;;;61.33;;
32501;SDS011;18952;52.516;13.460;2022-11-23T05:01:58;107.95;;;61.17;;
32501;SDS011;18952;52.516;13.460;2022-11-23T05:04:25;108.78;;;61.92;;
32501;SDS011;18952;52.516;13.460;2022-11-23T05:06:51;100.40;;;60.65;;
32501;SDS011;18952;52.516;13.460;2022-11-23T05:09:18;102.32;;;62.63;;
32501;SDS011;18952;52.516;13.460;2022-11-23T05:11:45;105.80;;;60.97;;
32501;SDS011;18952;52.516;13.460;2022-11-23T05:14:12;107.95;;;60.35;;
32501;SDS011;18952;52.516;13.460;2022-11-23T05:16:38;110.18;;;62.92;;
32501;SDS011;18952;52.516;13.460;2022-11-23T05:19:05;106.10;;;61.05;;
32501;SDS011;18952;52.516;13.460;2022-11-23T05:21:32;108.60;;;61.33;;
32501;SDS011;18952;52.516;13.460;2022-11-23T05:23:59;99.50;;;59.22;;
32501;SDS011;18952;52.516;13.460;2022-11-23T05:26:26;110.80;;;63.35;;
32501;SDS011;18952;52.516;13.460;2022-11-23T05:28:52;99.03;;;60.65;;
32501;SDS011;18952;52.516;13.460;2022-11-23T05:31:19;97.70;;;59.38;;
32501;SDS011;18952;52.516;13.460;2022-11-23T05:33:46;99.20;;;59.20;;
32501;SDS011;18952;52.516;13.460;2022-11-23T05:36:12;98.25;;;60.00;;
32501;SDS011;18952;52.516;13.460;2022-11-23T05:38:39;102.00;;;59.60;;
32501;SDS011;18952;52.516;13.460;2022-11-23T05:41:06;96.00;;;59.17;;
32501;SDS011;18952;52.516;13.460;2022-11-23T05:43:33;104.40;;;60.13;;
32501;SDS011;18952;52.516;13.460;2022-11-23T05:46:00;95.85;;;59.97;;
32501;SDS011;18952;52.516;13.460;2022-11-23T05:48:28;89.65;;;57.50;;
32501;SDS011;18952;52.516;13.460;2022-11-23T05:50:54;93.80;;;56.97;;
32501;SDS011;18952;52.516;13.460;2022-11-23T05:53:27;92.10;;;56.42;;
32501;SDS011;18952;52.516;13.460;2022-11-23T05:55:57;90.95;;;56.13;;
32501;SDS011;18952;52.516;13.460;2022-11-23T05:58:27;88.65;;;56.92;;
32501;SDS011;18952;52.516;13.460;2022-11-23T06:00:58;90.03;;;56.20;;
32501;SDS011;18952;52.516;13.460;2022-11-23T06:03:25;93.88;;;56.47;;
32501;SDS011;18952;52.516;13.460;2022-11-23T06:05:52;88.82;;;56.33;;
32501;SDS011;18952;52.516;13.460;2022-11-23T06:08:19;85.63;;;53.95;;
32501;SDS011;18952;52.516;13.460;2022-11-23T06:10:46;94.72;;;55.92;;
32501;SDS011;18952;52.516;13.460;2022-11-23T06:13:12;100.25;;;58.13;;
32501;SDS011;18952;52.516;13.460;2022-11-23T06:15:39;89.22;;;53.88;;
32501;SDS011;18952;52.516;13.460;2022-11-23T06:18:06;85.05;;;55.05;;
32501;SDS011;18952;52.516;13.460;2022-11-23T06:20:34;98.13;;;57.05;;
32501;SDS011;18952;52.516;13.460;2022-11-23T06:23:00;88.53;;;55.30;;
32501;SDS011;18952;52.516;13.460;2022-11-23T06:25:27;88.85;;;53.63;;
32501;SDS011;18952;52.516;13.460;2022-11-23T06:27:55;85.20;;;51.67;;
32501;SDS011;18952;52.516;13.460;2022-11-23T06:30:23;90.53;;;54.88;;
32501;SDS011;18952;52.516;13.460;2022-11-23T06:32:50;93.15;;;54.97;;
32501;SDS011;18952;52.516;13.460;2022-11-23T06:35:17;90.45;;;53.58;;
32501;SDS011;18952;52.516;13.460;2022-11-23T06:37:44;91.93;;;54.15;;
32501;SDS011;18952;52.516;13.460;2022-11-23T06:40:13;90.10;;;53.33;;
32501;SDS011;18952;52.516;13.460;2022-11-23T06:42:40;92.70;;;55.05;;
32501;SDS011;18952;52.516;13.460;2022-11-23T06:45:07;91.60;;;55.17;;
32501;SDS011;18952;52.516;13.460;2022-11-23T06:47:34;92.15;;;53.60;;
32501;SDS011;18952;52.516;13.460;2022-11-23T06:50:01;93.13;;;55.15;;
32501;SDS011;18952;52.516;13.460;2022-11-23T06:52:28;88.68;;;54.55;;
32501;SDS011;18952;52.516;13.460;2022-11-23T06:54:55;132.70;;;63.28;;
32501;SDS011;18952;52.516;13.460;2022-11-23T06:57:22;117.53;;;60.50;;
32501;SDS011;18952;52.516;13.460;2022-11-23T06:59:49;99.43;;;54.97;;
32501;SDS011;18952;52.516;13.460;2022-11-23T07:02:16;104.47;;;61.40;;
32501;SDS011;18952;52.516;13.460;2022-11-23T07:04:42;115.28;;;65.38;;
32501;SDS011;18952;52.516;13.460;2022-11-23T07:07:10;105.53;;;67.68;;
32501;SDS011;18952;52.516;13.460;2022-11-23T07:09:36;95.32;;;60.47;;
32501;SDS011;18952;52.516;13.460;2022-11-23T07:12:03;112.13;;;74.32;;
32501;SDS011;18952;52.516;13.460;2022-11-23T07:14:30;95.30;;;59.25;;
32501;SDS011;18952;52.516;13.460;2022-11-23T07:16:57;98.47;;;62.58;;
32501;SDS011;18952;52.516;13.460;2022-11-23T07:19:24;104.45;;;67.03;;
32501;SDS011;18952;52.516;13.460;2022-11-23T07:21:50;95.28;;;57.40;;
32501;SDS011;18952;52.516;13.460;2022-11-23T07:24:17;105.82;;;73.20;;
32501;SDS011;18952;52.516;13.460;2022-11-23T07:26:44;112.05;;;75.97;;
32501;SDS011;18952;52.516;13.460;2022-11-23T07:29:10;117.80;;;78.43;;
32501;SDS011;18952;52.516;13.460;2022-11-23T07:31:37;109.07;;;67.78;;
32501;SDS011;18952;52.516;13.460;2022-11-23T07:34:04;103.53;;;64.13;;
32501;SDS011;18952;52.516;13.460;2022-11-23T07:36:31;95.32;;;57.47;;
32501;SDS011;18952;52.516;13.460;2022-11-23T07:38:58;92.53;;;56.90;;
32501;SDS011;18952;52.516;13.460;2022-11-23T07:41:25;93.32;;;57.25;;
32501;SDS011;18952;52.516;13.460;2022-11-23T07:43:52;94.35;;;56.10;;
32501;SDS011;18952;52.516;13.460;2022-11-23T07:46:18;88.05;;;55.67;;
32501;SDS011;18952;52.516;13.460;2022-11-23T07:48:46;81.78;;;53.40;;
32501;SDS011;18952;52.516;13.460;2022-11-23T07:51:12;89.50;;;55.20;;
32501;SDS011;18952;52.516;13.460;2022-11-23T07:53:39;87.63;;;54.70;;
32501;SDS011;18952;52.516;13.460;2022-11-23T07:56:06;85.50;;;53.75;;
32501;SDS011;18952;52.516;13.460;2022-11-23T07:58:33;91.55;;;58.17;;
32501;SDS011;18952;52.516;13.460;2022-11-23T08:01:00;88.38;;;54.70;;
32501;SDS011;18952;52.516;13.460;2022-11-23T08:03:26;84.07;;;53.35;;
32501;SDS011;18952;52.516;13.460;2022-11-23T08:05:55;83.43;;;53.25;;
32501;SDS011;18952;52.516;13.460;2022-11-23T08:08:22;83.43;;;52.15;;
32501;SDS011;18952;52.516;13.460;2022-11-23T08:10:49;81.53;;;54.05;;
32501;SDS011;18952;52.516;13.460;2022-11-23T08:13:20;79.25;;;51.60;;
32501;SDS011;18952;52.516;13.460;2022-11-23T08:15:47;79.55;;;51.90;;
32501;SDS011;18952;52.516;13.460;2022-11-23T08:18:20;81.20;;;51.45;;
32501;SDS011;18952;52.516;13.460;2022-11-23T08:20:47;86.38;;;55.20;;
32501;SDS011;18952;52.516;13.460;2022-11-23T08:23:13;80.20;;;52.28;;
32501;SDS011;18952;52.516;13.460;2022-11-23T08:25:40;77.95;;;52.25;;
32501;SDS011;18952;52.516;13.460;2022-11-23T08:28:07;77.47;;;50.28;;
32501;SDS011;18952;52.516;13.460;2022-11-23T08:30:34;70.70;;;47.80;;
32501;SDS011;18952;52.516;13.460;2022-11-23T08:33:02;73.43;;;47.88;;
32501;SDS011;18952;52.516;13.460;2022-11-23T08:35:32;72.22;;;48.03;;
32501;SDS011;18952;52.516;13.460;2022-11-23T08:37:59;74.80;;;48.33;;
32501;SDS011;18952;52.516;13.460;2022-11-23T08:40:26;72.30;;;48.97;;
32501;SDS011;18952;52.516;13.460;2022-11-23T08:42:53;68.65;;;46.00;;
32501;SDS011;18952;52.516;13.460;2022-11-23T08:45:20;70.88;;;47.13;;
32501;SDS011;18952;52.516;13.460;2022-11-23T08:47:47;71.22;;;46.30;;
32501;SDS011;18952;52.516;13.460;2022-11-23T08:50:13;71.20;;;47.95;;
32501;SDS011;18952;52.516;13.460;2022-11-23T08:52:40;67.63;;;45.33;;
32501;SDS011;18952;52.516;13.460;2022-11-23T08:55:07;71.35;;;47.17;;
32501;SDS011;18952;52.516;13.460;2022-11-23T08:57:34;86.35;;;57.97;;
32501;SDS011;18952;52.516;13.460;2022-11-23T09:00:01;65.60;;;44.45;;
32501;SDS011;18952;52.516;13.460;2022-11-23T09:02:29;61.28;;;43.63;;
32501;SDS011;18952;52.516;13.460;2022-11-23T09:04:56;68.90;;;44.53;;
32501;SDS011;18952;52.516;13.460;2022-11-23T09:07:22;64.43;;;43.92;;
32501;SDS011;18952;52.516;13.460;2022-11-23T09:09:50;68.55;;;44.45;;
32501;SDS011;18952;52.516;13.460;2022-11-23T09:12:16;63.75;;;43.25;;
32501;SDS011;18952;52.516;13.460;2022-11-23T09:14:43;67.47;;;44.38;;
32501;SDS011;18952;52.516;13.460;2022-11-23T09:17:10;61.78;;;42.35;;
32501;SDS011;18952;52.516;13.460;2022-11-23T09:19:37;62.50;;;42.65;;
32501;SDS011;18952;52.516;13.460;2022-11-23T09:22:04;64.85;;;43.72;;
32501;SDS011;18952;52.516;13.460;2022-11-23T09:24:30;61.70;;;41.90;;
32501;SDS011;18952;52.516;13.460;2022-11-23T09:26:58;67.43;;;42.38;;
32501;SDS011;18952;52.516;13.460;2022-11-23T09:29:24;62.70;;;44.58;;
32501;SDS011;18952;52.516;13.460;2022-11-23T09:31:51;58.28;;;43.10;;
32501;SDS011;18952;52.516;13.460;2022-11-23T09:34:18;62.50;;;42.70;;
32501;SDS011;18952;52.516;13.460;2022-11-23T09:36:45;62.47;;;41.67;;
32501;SDS011;18952;52.516;13.460;2022-11-23T09:39:12;63.80;;;43.58;;
32501;SDS011;18952;52.516;13.460;2022-11-23T09:52:31;68.97;;;43.10;;
32501;SDS011;18952;52.516;13.460;2022-11-23T09:57:46;63.80;;;44.03;;
32501;SDS011;18952;52.516;13.460;2022-11-23T10:00:22;71.03;;;44.97;;
32501;SDS011;18952;52.516;13.460;2022-11-23T10:02:49;63.78;;;40.67;;
32501;SDS011;18952;52.516;13.460;2022-11-23T10:05:19;59.50;;;40.72;;
32501;SDS011;18952;52.516;13.460;2022-11-23T10:07:53;58.75;;;40.63;;
32501;SDS011;18952;52.516;13.460;2022-11-23T10:10:48;61.45;;;41.92;;
32501;SDS011;18952;52.516;13.460;2022-11-23T10:13:48;62.75;;;41.90;;
32501;SDS011;18952;52.516;13.460;2022-11-23T10:18:57;62.72;;;39.75;;
32501;SDS011;18952;52.516;13.460;2022-11-23T10:21:37;61.03;;;41.38;;
32501;SDS011;18952;52.516;13.460;2022-11-23T10:26:45;58.05;;;39.70;;
32501;SDS011;18952;52.516;13.460;2022-11-23T10:31:52;55.17;;;38.72;;
32501;SDS011;18952;52.516;13.460;2022-11-23T10:37:22;60.33;;;40.47;;
32501;SDS011;18952;52.516;13.460;2022-11-23T10:39:48;61.67;;;40.83;;
32501;SDS011;18952;52.516;13.460;2022-11-23T10:42:35;58.92;;;38.28;;
32501;SDS011;18952;52.516;13.460;2022-11-23T10:45:24;64.07;;;39.17;;
32501;SDS011;18952;52.516;13.460;2022-11-23T10:47:58;55.17;;;37.40;;
32501;SDS011;18952;52.516;13.460;2022-11-23T10:50:30;53.78;;;38.47;;
32501;SDS011;18952;52.516;13.460;2022-11-23T10:53:01;52.30;;;36.45;;
32501;SDS011;18952;52.516;13.460;2022-11-23T10:55:52;55.85;;;37.08;;
32501;SDS011;18952;52.516;13.460;2022-11-23T10:58:42;47.85;;;34.70;;
32501;SDS011;18952;52.516;13.460;2022-11-23T11:01:14;53.47;;;36.42;;
32501;SDS011;18952;52.516;13.460;2022-11-23T11:03:44;54.50;;;36.83;;
32501;SDS011;18952;52.516;13.460;2022-11-23T11:06:10;53.22;;;36.92;;
32501;SDS011;18952;52.516;13.460;2022-11-23T11:08:53;54.75;;;36.20;;
32501;SDS011;18952;52.516;13.460;2022-11-23T11:17:09;50.53;;;35.40;;
32501;SDS011;18952;52.516;13.460;2022-11-23T11:19:51;52.15;;;35.38;;
32501;SDS011;18952;52.516;13.460;2022-11-23T11:22:28;55.17;;;35.00;;
32501;SDS011;18952;52.516;13.460;2022-11-23T11:24:59;44.90;;;33.35;;
32501;SDS011;18952;52.516;13.460;2022-11-23T11:27:30;46.35;;;32.45;;
32501;SDS011;18952;52.516;13.460;2022-11-23T11:30:03;45.40;;;33.03;;
32501;SDS011;18952;52.516;13.460;2022-11-23T11:32:52;50.47;;;33.35;;
32501;SDS011;18952;52.516;13.460;2022-11-23T11:35:25;46.25;;;33.78;;
32501;SDS011;18952;52.516;13.460;2022-11-23T11:37:59;49.45;;;33.00;;
32501;SDS011;18952;52.516;13.460;2022-11-23T11:40:46;43.38;;;32.45;;
32501;SDS011;18952;52.516;13.460;2022-11-23T11:45:59;47.55;;;32.28;;
32501;SDS011;18952;52.516;13.460;2022-11-23T11:48:59;44.20;;;30.23;;
32501;SDS011;18952;52.516;13.460;2022-11-23T11:51:50;43.88;;;30.42;;
32501;SDS011;18952;52.516;13.460;2022-11-23T11:54:42;43.22;;;32.08;;
32501;SDS011;18952;52.516;13.460;2022-11-23T11:57:24;43.90;;;30.67;;
32501;SDS011;18952;52.516;13.460;2022-11-23T12:00:04;39.22;;;30.48;;
32501;SDS011;18952;52.516;13.460;2022-11-23T12:02:48;47.17;;;30.13;;
32501;SDS011;18952;52.516;13.460;2022-11-23T12:05:43;41.72;;;30.35;;
32501;SDS011;18952;52.516;13.460;2022-11-23T12:08:32;43.08;;;29.05;;
32501;SDS011;18952;52.516;13.460;2022-11-23T12:11:16;40.72;;;29.52;;
32501;SDS011;18952;52.516;13.460;2022-11-23T12:13:43;41.28;;;30.55;;
32501;SDS011;18952;52.516;13.460;2022-11-23T12:16:25;41.60;;;30.52;;
32501;SDS011;18952;52.516;13.460;2022-11-23T12:32:42;38.65;;;28.40;;
32501;SDS011;18952;52.516;13.460;2022-11-23T12:35:43;42.45;;;29.23;;
32501;SDS011;18952;52.516;13.460;2022-11-23T12:44:11;37.78;;;27.48;;
32501;SDS011;18952;52.516;13.460;2022-11-23T12:46:51;38.47;;;27.48;;
32501;SDS011;18952;52.516;13.460;2022-11-23T12:49:37;38.53;;;27.17;;
32501;SDS011;18952;52.516;13.460;2022-11-23T12:55:18;38.80;;;27.70;;
32501;SDS011;18952;52.516;13.460;2022-11-23T12:57:55;38.13;;;27.95;;
32501;SDS011;18952;52.516;13.460;2022-11-23T13:00:24;36.05;;;26.58;;
32501;SDS011;18952;52.516;13.460;2022-11-23T13:08:49;36.45;;;26.90;;
32501;SDS011;18952;52.516;13.460;2022-11-23T13:22:03;35.35;;;25.52;;
32501;SDS011;18952;52.516;13.460;2022-11-23T13:24:32;33.13;;;25.05;;
32501;SDS011;18952;52.516;13.460;2022-11-23T13:42:55;29.58;;;22.80;;
32501;SDS011;18952;52.516;13.460;2022-11-23T13:45:25;33.88;;;22.95;;
32501;SDS011;18952;52.516;13.460;2022-11-23T13:53:19;36.60;;;23.30;;
32501;SDS011;18952;52.516;13.460;2022-11-23T13:55:48;38.00;;;24.40;;
32501;SDS011;18952;52.516;13.460;2022-11-23T14:09:02;30.50;;;22.45;;
32501;SDS011;18952;52.516;13.460;2022-11-23T14:11:59;30.40;;;21.80;;
32501;SDS011;18952;52.516;13.460;2022-11-23T14:15:05;34.17;;;23.23;;
32501;SDS011;18952;52.516;13.460;2022-11-23T14:22:57;34.28;;;23.02;;
32501;SDS011;18952;52.516;13.460;2022-11-23T14:31:34;37.67;;;26.42;;
32501;SDS011;18952;52.516;13.460;2022-11-23T14:34:38;33.75;;;26.00;;
32501;SDS011;18952;52.516;13.460;2022-11-23T14:43:14;39.72;;;28.20;;
32501;SDS011;18952;52.516;13.460;2022-11-23T14:45:43;37.28;;;28.92;;
32501;SDS011;18952;52.516;13.460;2022-11-23T14:50:54;40.30;;;29.77;;
32501;SDS011;18952;52.516;13.460;2022-11-23T14:53:32;46.60;;;30.80;;
32501;SDS011;18952;52.516;13.460;2022-11-23T14:58:47;44.38;;;31.27;;
32501;SDS011;18952;52.516;13.460;2022-11-23T15:01:19;44.20;;;30.55;;
32501;SDS011;18952;52.516;13.460;2022-11-23T15:03:55;43.40;;;30.92;;
32501;SDS011;18952;52.516;13.460;2022-11-23T15:06:29;46.88;;;33.33;;
32501;SDS011;18952;52.516;13.460;2022-11-23T15:09:03;40.47;;;31.27;;
32501;SDS011;18952;52.516;13.460;2022-11-23T15:11:51;46.67;;;32.97;;
32501;SDS011;18952;52.516;13.460;2022-11-23T15:14:51;47.30;;;32.17;;
32501;SDS011;18952;52.516;13.460;2022-11-23T15:17:20;50.05;;;34.45;;
32501;SDS011;18952;52.516;13.460;2022-11-23T15:22:20;103.93;;;83.75;;
32501;SDS011;18952;52.516;13.460;2022-11-23T15:24:47;53.30;;;39.97;;
32501;SDS011;18952;52.516;13.460;2022-11-23T15:27:15;54.28;;;38.63;;
32501;SDS011;18952;52.516;13.460;2022-11-23T15:29:54;49.78;;;34.40;;
32501;SDS011;18952;52.516;13.460;2022-11-23T15:34:58;44.58;;;32.20;;
32501;SDS011;18952;52.516;13.460;2022-11-23T15:37:30;48.78;;;31.75;;
32501;SDS011;18952;52.516;13.460;2022-11-23T15:40:10;47.05;;;33.03;;
32501;SDS011;18952;52.516;13.460;2022-11-23T15:42:42;47.55;;;30.67;;
32501;SDS011;18952;52.516;13.460;2022-11-23T15:48:04;45.65;;;30.45;;
32501;SDS011;18952;52.516;13.460;2022-11-23T15:53:20;41.25;;;28.77;;
32501;SDS011;18952;52.516;13.460;2022-11-23T15:55:50;43.10;;;30.30;;
32501;SDS011;18952;52.516;13.460;2022-11-23T15:58:18;43.33;;;30.88;;
32501;SDS011;18952;52.516;13.460;2022-11-23T16:00:47;46.72;;;30.65;;
32501;SDS011;18952;52.516;13.460;2022-11-23T16:08:36;44.13;;;32.13;;
32501;SDS011;18952;52.516;13.460;2022-11-23T16:11:03;47.60;;;33.30;;
32501;SDS011;18952;52.516;13.460;2022-11-23T16:13:34;51.63;;;33.33;;
32501;SDS011;18952;52.516;13.460;2022-11-23T16:16:07;50.25;;;34.20;;
32501;SDS011;18952;52.516;13.460;2022-11-23T16:18:48;48.35;;;35.03;;
32501;SDS011;18952;52.516;13.460;2022-11-23T16:21:16;48.83;;;35.67;;
32501;SDS011;18952;52.516;13.460;2022-11-23T16:23:49;50.53;;;34.80;;
32501;SDS011;18952;52.516;13.460;2022-11-23T16:26:18;48.25;;;35.65;;
32501;SDS011;18952;52.516;13.460;2022-11-23T16:28:47;48.08;;;37.03;;
32501;SDS011;18952;52.516;13.460;2022-11-23T16:31:26;51.38;;;37.30;;
32501;SDS011;18952;52.516;13.460;2022-11-23T16:33:55;54.63;;;36.63;;
32501;SDS011;18952;52.516;13.460;2022-11-23T16:36:25;58.88;;;37.92;;
32501;SDS011;18952;52.516;13.460;2022-11-23T16:38:52;53.47;;;39.85;;
32501;SDS011;18952;52.516;13.460;2022-11-23T16:41:29;55.17;;;39.47;;
32501;SDS011;18952;52.516;13.460;2022-11-23T16:43:55;53.80;;;39.83;;
32501;SDS011;18952;52.516;13.460;2022-11-23T16:46:22;59.85;;;42.45;;
32501;SDS011;18952;52.516;13.460;2022-11-23T16:48:49;55.47;;;41.10;;
32501;SDS011;18952;52.516;13.460;2022-11-23T16:51:16;61.88;;;42.40;;